ICT,Max TemperatureF,Mean TemperatureF,Min TemperatureF,Max Dew PointF,MeanDew PointF,Min DewpointF,Max Humidity, Mean Humidity, Min Humidity, Max Sea Level PressureIn, Mean Sea Level PressureIn, Min Sea Level PressureIn, Max VisibilityMiles, Mean VisibilityMiles, Min VisibilityMiles, Max Wind SpeedMPH, Mean Wind SpeedMPH, Max Gust SpeedMPH,PrecipitationIn, CloudCover, Events, WindDirDegrees
2012-12-1,90,84,78,79,76,73,94,77,59,29.89,29.82,29.77,6,4,2,8,2,,0.00,5,,325
2012-12-2,95,87,79,79,76,72,94,72,42,29.89,29.83,29.77,6,5,1,7,3,,0.00,5,,60
2012-12-3,91,86,80,77,74,68,89,69,40,29.89,29.83,29.77,6,5,3,9,1,,0.00,5,,136
2012-12-4,92,86,79,77,72,68,89,67,37,29.89,29.83,29.74,6,5,2,9,3,,0.00,6,,176
2012-12-5,93,86,78,75,73,71,84,67,46,29.92,29.83,29.77,6,5,2,9,4,,0.00,4,,137
2012-12-6,95,88,80,79,76,73,89,71,49,29.92,29.84,29.77,6,5,2,10,4,,0.00,5,,162
2012-12-7,90,84,79,77,75,73,89,73,53,29.92,29.84,29.77,6,6,2,7,4,,0.01,5,Rain,166
2012-12-8,89,84,78,77,74,70,94,74,47,29.92,29.83,29.77,6,6,2,6,2,,0.08,4,Rain,164
2012-12-9,89,84,78,77,74,68,94,75,49,29.89,29.82,29.77,6,6,4,10,2,,0.00,5,,172
2012-12-10,89,84,78,79,75,72,94,78,52,29.89,29.82,29.77,6,6,0,8,2,,1.77,5,Rain,142
2012-12-11,94,86,78,79,75,70,89,73,46,29.89,29.82,29.77,6,5,2,7,3,,0.00,6,,195
2012-12-12,95,86,76,77,73,68,89,68,37,29.92,29.86,29.80,6,6,4,9,3,,0.00,5,,89
2012-12-13,94,86,78,73,70,64,83,63,33,29.95,29.88,29.80,7,6,6,39,4,,0.00,4,,65
2012-12-14,94,86,77,74,72,68,83,65,40,29.98,29.91,29.86,6,6,3,9,5,,0.00,4,,29
2012-12-15,94,86,77,77,73,72,89,67,47,29.92,29.87,29.80,6,5,2,8,5,,0.00,5,,4
2012-12-16,95,86,78,77,73,70,81,64,42,29.92,29.86,29.80,6,5,3,9,6,,0.00,4,,2
2012-12-17,95,86,77,75,73,69,89,63,43,29.89,29.83,29.77,6,5,3,12,6,,0.00,6,,22
2012-12-18,96,87,78,75,72,68,79,61,39,29.92,29.85,29.80,6,6,4,9,4,,0.00,3,,36
2012-12-19,95,88,80,75,73,70,79,62,44,29.89,29.83,29.77,6,5,2,15,6,,0.00,3,,65
2012-12-20,92,86,80,75,70,64,79,58,33,29.86,29.82,29.77,6,6,5,10,3,,0.00,3,,86
2012-12-21,96,88,79,75,72,68,84,60,34,29.86,29.81,29.74,6,6,2,9,4,,0.00,4,,45
2012-12-22,92,85,78,75,70,64,84,58,35,29.86,29.81,29.74,6,6,3,12,5,,0.00,4,,67
2012-12-23,93,86,80,75,71,66,79,61,38,29.92,29.86,29.80,6,6,6,17,6,,0.00,5,,88
2012-12-24,84,78,72,72,64,61,74,59,42,30.01,29.92,29.86,6,6,5,12,6,,0.00,3,,55
2012-12-25,88,80,71,68,64,59,78,60,36,29.95,29.87,29.80,6,6,6,10,5,,0.00,4,,36
2012-12-26,92,84,75,70,67,63,83,61,30,29.89,29.83,29.77,6,5,4,9,6,,0.00,4,,31
2012-12-27,90,83,76,70,67,64,78,59,42,29.89,29.81,29.74,6,5,3,10,5,,0.00,4,,17
2012-12-28,96,86,77,72,69,68,78,59,38,29.86,29.78,29.71,6,5,3,10,5,,0.00,3,,21
2012-12-29,95,86,78,73,71,68,79,62,38,29.86,29.78,29.71,6,5,3,8,6,,0.00,3,,21
2012-12-30,96,87,78,73,71,68,74,59,35,29.83,29.78,29.74,6,6,5,8,5,,0.00,5,,46
2012-12-31,91,82,74,72,66,61,83,60,35,29.92,29.84,29.80,6,6,6,15,7,,0.00,5,,85